createdAt,value
2018-04-06T00:00:29.902Z,7.90
2018-04-06T00:02:58.834Z,7.90
2018-04-06T00:05:27.007Z,7.80
2018-04-06T00:07:55.177Z,7.80
2018-04-06T00:10:23.350Z,7.80
2018-04-06T00:12:51.525Z,7.80
2018-04-06T00:15:19.711Z,7.70
2018-04-06T00:17:47.878Z,7.70
2018-04-06T00:20:16.042Z,7.70
2018-04-06T00:22:44.225Z,7.70
2018-04-06T00:25:12.394Z,7.80
2018-04-06T00:27:40.614Z,7.80
2018-04-06T00:30:08.752Z,7.80
2018-04-06T00:32:36.947Z,7.80
2018-04-06T00:35:05.109Z,7.80
2018-04-06T00:37:33.278Z,7.80
2018-04-06T00:40:01.447Z,7.80
2018-04-06T00:42:29.614Z,8.00
2018-04-06T00:44:57.797Z,8.10
2018-04-06T00:47:25.954Z,8.20
2018-04-06T00:49:54.122Z,8.50
2018-04-06T00:52:22.322Z,8.70
2018-04-06T00:54:50.490Z,8.90
2018-04-06T00:57:18.660Z,9.00
2018-04-06T00:59:46.836Z,9.00
2018-04-06T01:02:15.027Z,9.10
2018-04-06T01:04:43.204Z,9.10
2018-04-06T01:07:11.374Z,9.10
2018-04-06T01:09:39.576Z,9.10
2018-04-06T01:12:07.746Z,9.20
2018-04-06T01:14:35.906Z,9.10
2018-04-06T01:17:04.065Z,9.10
2018-04-06T01:19:32.235Z,9.10
2018-04-06T01:22:00.386Z,9.00
2018-04-06T01:24:28.546Z,9.00
2018-04-06T01:26:57.473Z,8.80
2018-04-06T01:29:25.657Z,8.70
2018-04-06T01:31:53.814Z,8.80
2018-04-06T01:34:21.987Z,8.80
2018-04-06T01:36:51.825Z,8.80
2018-04-06T01:39:19.989Z,8.70
2018-04-06T01:41:48.142Z,8.70
2018-04-06T01:44:16.301Z,8.70
2018-04-06T01:46:45.238Z,8.60
2018-04-06T01:49:13.407Z,8.60
2018-04-06T01:51:41.587Z,8.70
2018-04-06T01:54:09.751Z,8.70
2018-04-06T01:56:37.921Z,8.70
2018-04-06T01:59:06.075Z,8.80
2018-04-06T02:01:34.252Z,8.80
2018-04-06T02:04:02.411Z,8.80
2018-04-06T02:06:31.351Z,8.90
2018-04-06T02:08:59.558Z,8.90
2018-04-06T02:11:27.718Z,9.00
2018-04-06T02:13:55.881Z,9.00
2018-04-06T02:16:24.042Z,9.00
2018-04-06T02:18:52.215Z,9.00
2018-04-06T02:21:20.390Z,9.10
2018-04-06T02:23:48.576Z,9.00
2018-04-06T02:26:16.744Z,9.00
2018-04-06T02:28:44.945Z,9.00
2018-04-06T02:31:13.132Z,8.90
2018-04-06T02:33:41.333Z,8.90
2018-04-06T02:36:09.510Z,8.90
2018-04-06T02:38:37.679Z,8.80
2018-04-06T02:41:06.636Z,8.70
2018-04-06T02:43:34.868Z,8.70
2018-04-06T02:46:03.772Z,8.60
2018-04-06T02:48:31.944Z,8.60
2018-04-06T02:51:00.896Z,8.60
2018-04-06T02:53:29.843Z,8.70
2018-04-06T02:55:58.011Z,8.70
2018-04-06T02:58:26.180Z,8.70
2018-04-06T03:00:54.344Z,8.70
2018-04-06T03:03:22.515Z,8.70
2018-04-06T03:05:50.676Z,8.60
2018-04-06T03:08:18.838Z,8.60
2018-04-06T03:10:47.771Z,8.60
2018-04-06T03:13:15.926Z,8.50
2018-04-06T03:15:44.133Z,8.50
2018-04-06T03:18:13.079Z,8.50
2018-04-06T03:20:42.025Z,8.50
2018-04-06T03:23:10.210Z,8.50
2018-04-06T03:25:39.539Z,8.50
2018-04-06T03:28:08.496Z,8.50
2018-04-06T03:30:36.704Z,8.40
2018-04-06T03:33:05.647Z,8.40
2018-04-06T03:35:33.830Z,8.40
2018-04-06T03:38:02.006Z,8.40
2018-04-06T03:40:30.167Z,8.40
2018-04-06T03:42:58.351Z,8.40
2018-04-06T03:45:26.526Z,8.40
2018-04-06T03:47:54.687Z,8.30
2018-04-06T03:50:22.873Z,8.30
2018-04-06T03:52:51.813Z,8.30
2018-04-06T03:55:20.754Z,8.20
2018-04-06T03:57:48.955Z,8.20
2018-04-06T04:00:17.119Z,8.30
2018-04-06T04:02:45.304Z,8.30
2018-04-06T04:05:13.481Z,8.20
2018-04-06T04:07:41.665Z,8.20
2018-04-06T04:10:09.860Z,8.20
2018-04-06T04:12:38.796Z,8.20
2018-04-06T04:15:06.965Z,8.10
2018-04-06T04:17:35.134Z,8.10
2018-04-06T04:20:04.057Z,8.10
2018-04-06T04:22:32.215Z,8.10
2018-04-06T04:25:00.399Z,8.10
2018-04-06T04:27:28.565Z,8.00
2018-04-06T04:29:56.738Z,8.00
2018-04-06T04:32:24.903Z,7.90
2018-04-06T04:34:53.093Z,7.80
2018-04-06T04:37:21.262Z,7.80
2018-04-06T04:39:49.424Z,7.70
2018-04-06T04:42:17.610Z,7.70
2018-04-06T04:44:45.780Z,7.70
2018-04-06T04:47:13.945Z,7.70
2018-04-06T04:49:42.109Z,7.70
2018-04-06T04:52:10.272Z,7.70
2018-04-06T04:54:43.651Z,7.70
2018-04-06T04:57:12.686Z,7.70
2018-04-06T04:59:40.862Z,7.70
2018-04-06T05:02:09.801Z,7.70
2018-04-06T05:04:38.745Z,7.70
2018-04-06T05:07:06.928Z,7.70
2018-04-06T05:09:35.121Z,7.80
2018-04-06T05:12:03.274Z,7.90
2018-04-06T05:14:31.447Z,8.00
2018-04-06T05:16:59.626Z,8.00
2018-04-06T05:19:27.802Z,8.00
2018-04-06T05:21:55.974Z,8.00
2018-04-06T05:24:24.938Z,8.10
2018-04-06T05:26:53.134Z,8.00
2018-04-06T05:29:21.309Z,8.10
2018-04-06T05:31:49.488Z,8.20
2018-04-06T05:34:17.687Z,8.20
2018-04-06T05:36:45.838Z,8.30
2018-04-06T05:39:14.006Z,8.30
2018-04-06T05:41:42.183Z,8.30
2018-04-06T05:44:10.356Z,8.40
2018-04-06T05:46:38.523Z,8.40
2018-04-06T05:49:06.688Z,8.50
2018-04-06T05:51:34.886Z,8.50
2018-04-06T05:54:03.059Z,8.60
2018-04-06T05:56:31.218Z,8.70
2018-04-06T05:58:59.399Z,8.70
2018-04-06T06:01:27.581Z,8.70
2018-04-06T06:03:55.775Z,8.70
2018-04-06T06:06:23.950Z,8.80
2018-04-06T06:08:52.112Z,8.90
2018-04-06T06:11:20.266Z,8.90
2018-04-06T06:13:48.454Z,9.00
2018-04-06T06:16:16.626Z,9.10
2018-04-06T06:18:44.783Z,9.10
2018-04-06T06:21:12.955Z,9.30
2018-04-06T06:23:41.133Z,9.30
2018-04-06T06:26:09.306Z,9.50
2018-04-06T06:28:37.511Z,9.50
2018-04-06T06:31:05.680Z,9.60
2018-04-06T06:33:33.848Z,9.60
2018-04-06T06:36:02.016Z,9.70
2018-04-06T06:38:30.178Z,9.80
2018-04-06T06:40:58.364Z,9.90
2018-04-06T06:43:26.553Z,9.90
2018-04-06T06:45:54.723Z,9.90
2018-04-06T06:48:22.925Z,10.00
2018-04-06T06:50:51.138Z,10.10
2018-04-06T06:53:19.309Z,10.20
2018-04-06T06:55:47.474Z,10.10
2018-04-06T06:58:16.501Z,10.30
2018-04-06T07:00:44.726Z,10.20
2018-04-06T07:03:13.658Z,10.40
2018-04-06T07:05:41.819Z,10.30
2018-04-06T07:08:09.990Z,10.40
2018-04-06T07:10:38.161Z,10.40
2018-04-06T07:13:06.345Z,10.40
2018-04-06T07:15:34.513Z,10.40
2018-04-06T07:18:02.687Z,10.50
2018-04-06T07:20:30.902Z,10.50
2018-04-06T07:22:59.088Z,10.60
2018-04-06T07:25:27.278Z,10.60
2018-04-06T07:27:55.451Z,10.60
2018-04-06T07:30:23.635Z,10.70
2018-04-06T07:32:51.802Z,10.80
2018-04-06T07:35:19.973Z,10.80
2018-04-06T07:37:48.160Z,10.80
2018-04-06T07:40:17.124Z,10.90
2018-04-06T07:42:45.296Z,10.80
2018-04-06T07:45:13.497Z,11.00
2018-04-06T07:47:41.675Z,11.10
2018-04-06T07:50:10.841Z,11.20
2018-04-06T07:52:39.014Z,11.20
2018-04-06T07:55:07.224Z,11.20
2018-04-06T07:57:36.178Z,11.30
2018-04-06T08:00:04.393Z,11.30
2018-04-06T08:02:33.331Z,11.40
2018-04-06T08:05:01.627Z,11.40
2018-04-06T08:07:29.809Z,11.40
2018-04-06T08:09:58.038Z,11.50
2018-04-06T08:12:26.280Z,11.50
2018-04-06T08:14:54.617Z,11.60
2018-04-06T08:17:22.784Z,11.70
2018-04-06T08:19:50.959Z,11.70
2018-04-06T08:22:19.127Z,11.80
2018-04-06T08:24:47.283Z,11.80
2018-04-06T08:27:16.215Z,12.00
2018-04-06T08:29:44.387Z,12.00
2018-04-06T08:32:12.649Z,12.20
2018-04-06T08:34:40.844Z,12.20
2018-04-06T08:37:09.019Z,12.20
2018-04-06T08:39:37.178Z,12.30
2018-04-06T08:42:05.338Z,12.50
2018-04-06T08:44:33.534Z,12.50
2018-04-06T08:47:01.699Z,12.60
2018-04-06T08:49:29.872Z,12.70
2018-04-06T08:51:58.031Z,12.90
2018-04-06T08:54:26.200Z,13.10
2018-04-06T08:56:55.442Z,13.50
2018-04-06T08:59:23.609Z,13.40
2018-04-06T09:01:51.776Z,13.50
2018-04-06T09:04:19.969Z,13.70
2018-04-06T09:06:48.135Z,13.80
2018-04-06T09:09:16.382Z,13.90
2018-04-06T09:11:44.594Z,14.10
2018-04-06T09:14:12.795Z,14.30
2018-04-06T09:16:40.978Z,14.50
2018-04-06T09:19:09.933Z,14.80
2018-04-06T09:21:38.166Z,14.70
2018-04-06T09:24:07.122Z,15.10
2018-04-06T09:26:36.051Z,15.00
2018-04-06T09:29:05.029Z,15.00
2018-04-06T09:31:33.962Z,15.10
2018-04-06T09:34:02.136Z,15.10
2018-04-06T09:36:30.311Z,15.30
2018-04-06T09:38:58.476Z,15.60
2018-04-06T09:41:26.646Z,15.90
2018-04-06T09:43:54.848Z,16.10
2018-04-06T09:46:23.055Z,16.00
2018-04-06T09:48:51.218Z,16.00
2018-04-06T09:51:19.412Z,16.20
2018-04-06T09:53:48.366Z,16.40
2018-04-06T09:56:16.538Z,16.30
2018-04-06T09:58:44.701Z,16.70
2018-04-06T10:01:12.929Z,17.00
2018-04-06T10:03:41.870Z,17.60
2018-04-06T10:06:10.044Z,17.60
2018-04-06T10:08:38.235Z,17.90
2018-04-06T10:11:06.446Z,17.90
2018-04-06T10:13:34.635Z,17.80
2018-04-06T10:16:03.570Z,18.00
2018-04-06T10:18:31.743Z,18.00
2018-04-06T10:20:59.905Z,18.10
2018-04-06T10:23:28.066Z,18.20
2018-04-06T10:25:56.235Z,18.50
2018-04-06T10:28:24.400Z,19.10
2018-04-06T10:30:53.335Z,19.50
2018-04-06T10:33:21.562Z,19.40
2018-04-06T10:35:50.506Z,19.70
2018-04-06T10:38:18.722Z,19.70
2018-04-06T10:40:47.675Z,20.00
2018-04-06T10:43:15.860Z,19.90
2018-04-06T10:45:44.794Z,19.90
2018-04-06T10:48:13.732Z,19.90
2018-04-06T10:50:41.967Z,19.80
2018-04-06T10:53:10.900Z,20.60
2018-04-06T10:55:39.106Z,20.50
2018-04-06T10:58:07.286Z,21.10
2018-04-06T11:00:35.461Z,21.20
2018-04-06T11:03:03.624Z,21.30
2018-04-06T11:05:31.806Z,21.30
2018-04-06T11:08:00.017Z,21.70
2018-04-06T11:10:28.200Z,21.90
2018-04-06T11:12:56.363Z,21.90
2018-04-06T11:15:24.534Z,22.20
2018-04-06T11:17:53.474Z,22.60
2018-04-06T11:20:21.644Z,22.50
2018-04-06T11:22:49.814Z,22.80
2018-04-06T11:25:18.001Z,23.20
2018-04-06T11:27:46.198Z,23.80
2018-04-06T11:30:14.380Z,24.20
2018-04-06T11:32:43.422Z,24.60
2018-04-06T11:35:11.597Z,24.60
2018-04-06T11:37:39.801Z,24.30
2018-04-06T11:40:08.741Z,23.70
2018-04-06T11:42:36.929Z,23.70
2018-04-06T11:45:05.094Z,23.80
2018-04-06T11:47:33.262Z,23.80
2018-04-06T11:50:02.218Z,23.10
2018-04-06T11:52:30.405Z,23.10
2018-04-06T11:54:58.571Z,22.70
2018-04-06T11:57:26.742Z,22.40
2018-04-06T11:59:54.912Z,21.90
2018-04-06T12:02:23.108Z,21.80
2018-04-06T12:04:52.062Z,22.10
2018-04-06T12:07:20.231Z,22.10
2018-04-06T12:09:48.410Z,22.30
2018-04-06T12:12:16.589Z,22.60
2018-04-06T12:14:44.758Z,22.80
2018-04-06T12:17:12.930Z,22.90
2018-04-06T12:19:41.102Z,23.60
2018-04-06T12:22:09.283Z,26.80
2018-04-06T12:24:37.451Z,29.20
2018-04-06T12:27:05.633Z,31.50
2018-04-06T12:29:33.802Z,33.80
2018-04-06T12:32:02.011Z,35.20
2018-04-06T12:34:30.167Z,35.60
2018-04-06T12:36:58.340Z,35.80
2018-04-06T12:39:26.512Z,36.30
2018-04-06T12:41:54.692Z,36.10
2018-04-06T12:44:22.895Z,37.00
2018-04-06T12:46:51.825Z,36.10
2018-04-06T12:49:20.019Z,36.00
2018-04-06T12:51:48.190Z,37.60
2018-04-06T12:54:16.368Z,37.90
2018-04-06T12:56:44.537Z,37.80
2018-04-06T12:59:12.720Z,36.50
2018-04-06T13:01:40.890Z,35.90
2018-04-06T13:04:09.105Z,36.00
2018-04-06T13:06:37.272Z,35.90
2018-04-06T13:09:06.369Z,36.90
2018-04-06T13:11:34.540Z,38.20
2018-04-06T13:14:02.731Z,38.70
2018-04-06T13:16:31.672Z,37.30
2018-04-06T13:18:59.883Z,37.30
2018-04-06T13:21:28.054Z,37.30
2018-04-06T13:23:56.220Z,38.20
2018-04-06T13:26:24.382Z,39.20
2018-04-06T13:28:52.551Z,39.80
2018-04-06T13:31:20.722Z,40.40
2018-04-06T13:33:48.900Z,40.10
2018-04-06T13:36:17.084Z,39.60
2018-04-06T13:38:45.259Z,39.70
2018-04-06T13:41:13.430Z,39.80
2018-04-06T13:43:41.601Z,39.50
2018-04-06T13:46:09.795Z,39.60
2018-04-06T13:48:37.983Z,39.00
2018-04-06T13:51:06.948Z,38.00
2018-04-06T13:53:35.117Z,38.00
2018-04-06T13:56:03.294Z,38.30
2018-04-06T13:58:31.487Z,38.70
2018-04-06T14:00:59.781Z,39.00
2018-04-06T14:03:27.923Z,39.50
2018-04-06T14:05:56.179Z,39.60
2018-04-06T14:08:24.468Z,40.10
2018-04-06T14:10:52.638Z,39.90
2018-04-06T14:13:20.827Z,40.00
2018-04-06T14:15:48.999Z,38.90
2018-04-06T14:18:17.224Z,37.60
2018-04-06T14:20:46.165Z,36.70
2018-04-06T14:23:14.334Z,36.60
2018-04-06T14:25:42.577Z,37.30
2018-04-06T14:28:10.752Z,36.40
2018-04-06T14:30:38.919Z,36.70
2018-04-06T14:33:07.852Z,36.10
2018-04-06T14:35:36.047Z,36.00
2018-04-06T14:38:04.211Z,35.60
2018-04-06T14:40:32.395Z,35.90
2018-04-06T14:43:00.563Z,35.70
2018-04-06T14:45:28.739Z,35.80
2018-04-06T14:47:57.669Z,34.90
2018-04-06T14:50:26.622Z,34.80
2018-04-06T14:52:54.792Z,34.70
2018-04-06T14:55:23.709Z,35.20
2018-04-06T14:57:51.877Z,35.70
2018-04-06T15:00:20.042Z,35.90
2018-04-06T15:02:48.210Z,35.30
2018-04-06T15:05:17.158Z,33.90
2018-04-06T15:07:45.326Z,33.80
2018-04-06T15:10:14.258Z,33.80
2018-04-06T15:12:42.434Z,33.80
2018-04-06T15:15:10.600Z,33.60
2018-04-06T15:17:38.764Z,33.60
2018-04-06T15:20:06.936Z,33.00
2018-04-06T15:22:35.098Z,31.80
2018-04-06T15:25:03.265Z,31.20
2018-04-06T15:27:32.194Z,31.40
2018-04-06T15:30:00.386Z,31.30
2018-04-06T15:32:28.619Z,31.20
2018-04-06T15:34:57.542Z,30.80
2018-04-06T15:37:25.730Z,30.80
2018-04-06T15:39:53.903Z,30.70
2018-04-06T15:42:22.063Z,30.40
2018-04-06T15:44:50.272Z,29.70
2018-04-06T15:47:18.478Z,28.80
2018-04-06T15:49:46.654Z,28.30
2018-04-06T15:52:14.837Z,27.80
2018-04-06T15:54:43.003Z,27.50
2018-04-06T15:57:11.177Z,27.00
2018-04-06T15:59:39.383Z,27.10
2018-04-06T16:02:07.550Z,27.10
2018-04-06T16:04:35.716Z,27.20
2018-04-06T16:07:03.907Z,27.10
2018-04-06T16:09:32.078Z,26.50
2018-04-06T16:12:00.248Z,26.00
2018-04-06T16:14:28.438Z,25.70
2018-04-06T16:16:56.611Z,25.70
2018-04-06T16:19:24.821Z,25.40
2018-04-06T16:21:52.996Z,25.20
2018-04-06T16:24:21.955Z,24.70
2018-04-06T16:26:50.120Z,24.60
2018-04-06T16:29:18.316Z,24.40
2018-04-06T16:31:46.475Z,24.10
2018-04-06T16:34:14.649Z,23.80
2018-04-06T16:36:43.578Z,23.10
2018-04-06T16:39:11.750Z,23.00
2018-04-06T16:41:39.927Z,22.80
2018-04-06T16:44:08.100Z,22.50
2018-04-06T16:46:37.156Z,21.90
2018-04-06T16:49:05.327Z,21.80
2018-04-06T16:51:33.494Z,21.70
2018-04-06T16:54:01.655Z,21.40
2018-04-06T16:56:29.854Z,21.10
2018-04-06T16:58:58.028Z,21.10
2018-04-06T17:01:26.204Z,20.90
2018-04-06T17:03:54.367Z,20.60
2018-04-06T17:06:22.535Z,20.30
2018-04-06T17:08:50.706Z,20.00
2018-04-06T17:11:18.870Z,19.70
2018-04-06T17:13:47.046Z,19.80
2018-04-06T17:16:15.219Z,19.50
2018-04-06T17:18:43.387Z,19.10
2018-04-06T17:21:11.558Z,18.90
2018-04-06T17:23:40.494Z,18.50
2018-04-06T17:26:09.556Z,18.50
2018-04-06T17:28:37.770Z,18.30
2018-04-06T17:31:05.943Z,18.10
2018-04-06T17:33:34.167Z,18.00
2018-04-06T17:36:03.099Z,17.50
2018-04-06T17:38:31.266Z,17.50
2018-04-06T17:40:59.440Z,17.10
2018-04-06T17:43:27.637Z,16.80
2018-04-06T17:45:55.834Z,16.70
2018-04-06T17:48:24.015Z,16.40
2018-04-06T17:50:52.957Z,16.20
2018-04-06T17:53:21.127Z,16.10
2018-04-06T17:55:49.307Z,15.90
2018-04-06T17:58:17.484Z,15.90
2018-04-06T18:00:45.656Z,15.80
2018-04-06T18:03:13.814Z,15.70
2018-04-06T18:05:41.978Z,15.70
2018-04-06T18:08:10.909Z,15.50
2018-04-06T18:10:39.173Z,15.40
2018-04-06T18:13:07.343Z,15.50
2018-04-06T18:15:35.518Z,15.40
2018-04-06T18:18:03.692Z,15.30
2018-04-06T18:20:31.898Z,15.20
2018-04-06T18:23:00.074Z,15.20
2018-04-06T18:25:28.266Z,15.00
2018-04-06T18:27:56.465Z,14.80
2018-04-06T18:30:25.435Z,14.60
2018-04-06T18:32:53.615Z,14.50
2018-04-06T18:35:22.556Z,14.60
2018-04-06T18:37:50.734Z,14.50
2018-04-06T18:40:18.904Z,14.60
2018-04-06T18:42:47.081Z,14.50
2018-04-06T18:45:15.275Z,14.30
2018-04-06T18:47:43.449Z,14.30
2018-04-06T18:50:11.624Z,14.40
2018-04-06T18:52:39.789Z,14.50
2018-04-06T18:55:07.968Z,14.40
2018-04-06T18:57:36.170Z,14.30
2018-04-06T19:00:04.367Z,14.40
2018-04-06T19:02:33.310Z,14.30
2018-04-06T19:05:01.517Z,14.20
2018-04-06T19:07:29.714Z,14.10
2018-04-06T19:09:58.656Z,14.00
2018-04-06T19:12:26.835Z,13.90
2018-04-06T19:14:55.014Z,13.90
2018-04-06T19:17:23.190Z,13.90
2018-04-06T19:19:51.381Z,13.90
2018-04-06T19:22:19.559Z,13.80
2018-04-06T19:24:47.756Z,13.60
2018-04-06T19:27:16.725Z,13.50
2018-04-06T19:29:44.883Z,13.50
2018-04-06T19:32:13.050Z,13.60
2018-04-06T19:34:41.269Z,13.60
2018-04-06T19:37:10.245Z,13.50
2018-04-06T19:39:38.436Z,13.50
2018-04-06T19:42:07.377Z,13.50
2018-04-06T19:44:35.557Z,13.50
2018-04-06T19:47:03.731Z,13.50
2018-04-06T19:49:31.972Z,13.40
2018-04-06T19:52:00.134Z,13.30
2018-04-06T19:54:31.326Z,13.10
2018-04-06T19:57:06.267Z,13.00
2018-04-06T19:59:35.060Z,13.10
2018-04-06T20:02:08.065Z,13.00
2018-04-06T20:04:39.497Z,12.90
2018-04-06T20:07:07.824Z,12.80
2018-04-06T20:09:36.008Z,12.80
2018-04-06T20:12:04.258Z,12.70
2018-04-06T20:14:33.198Z,12.60
2018-04-06T20:17:01.368Z,12.50
2018-04-06T20:19:29.553Z,12.40
2018-04-06T20:21:57.741Z,12.40
2018-04-06T20:24:25.915Z,12.40
2018-04-06T20:26:56.014Z,12.30
2018-04-06T20:29:25.594Z,12.30
2018-04-06T20:31:54.271Z,12.20
2018-04-06T20:34:23.211Z,12.30
2018-04-06T20:36:51.391Z,12.30
2018-04-06T20:39:19.569Z,12.40
2018-04-06T20:41:47.741Z,12.30
2018-04-06T20:44:15.934Z,12.30
2018-04-06T20:46:44.122Z,12.20
2018-04-06T20:49:13.067Z,12.20
2018-04-06T20:51:41.235Z,12.10
2018-04-06T20:54:09.420Z,12.20
2018-04-06T20:56:37.592Z,12.20
2018-04-06T20:59:05.808Z,12.10
2018-04-06T21:01:34.032Z,12.20
2018-04-06T21:04:02.216Z,12.20
2018-04-06T21:06:30.383Z,12.10
2018-04-06T21:08:58.577Z,12.10
2018-04-06T21:11:26.755Z,11.90
2018-04-06T21:13:54.932Z,11.80
2018-04-06T21:16:23.112Z,11.80
2018-04-06T21:18:51.293Z,11.80
2018-04-06T21:21:19.462Z,11.80
2018-04-06T21:23:47.675Z,11.80
2018-04-06T21:26:15.868Z,11.70
2018-04-06T21:28:44.054Z,11.50
2018-04-06T21:31:12.219Z,11.40
2018-04-06T21:33:40.417Z,11.40
2018-04-06T21:36:08.585Z,11.30
2018-04-06T21:38:36.771Z,11.20
2018-04-06T21:41:04.944Z,11.10
2018-04-06T21:43:33.123Z,11.20
2018-04-06T21:46:01.319Z,11.00
2018-04-06T21:48:29.506Z,10.90
2018-04-06T21:50:58.459Z,10.60
2018-04-06T21:53:26.745Z,10.60
2018-04-06T21:55:54.950Z,10.60
2018-04-06T21:58:23.940Z,10.60
2018-04-06T22:00:52.144Z,10.50
2018-04-06T22:03:20.302Z,10.60
2018-04-06T22:05:49.260Z,10.70
2018-04-06T22:08:17.459Z,10.70
2018-04-06T22:10:45.666Z,10.70
2018-04-06T22:13:13.860Z,10.60
2018-04-06T22:15:42.044Z,10.40
2018-04-06T22:18:10.221Z,10.30
2018-04-06T22:20:38.390Z,10.20
2018-04-06T22:23:06.558Z,10.10
2018-04-06T22:25:34.836Z,10.00
2018-04-06T22:28:03.010Z,9.90
2018-04-06T22:30:31.186Z,9.90
2018-04-06T22:32:59.353Z,9.90
2018-04-06T22:35:27.531Z,9.90
2018-04-06T22:37:55.744Z,10.00
2018-04-06T22:40:23.939Z,10.00
2018-04-06T22:42:52.899Z,9.90
2018-04-06T22:45:21.068Z,9.80
2018-04-06T22:47:49.992Z,9.70
2018-04-06T22:50:18.160Z,9.70
2018-04-06T22:52:46.327Z,9.70
2018-04-06T22:55:14.507Z,9.60
2018-04-06T22:57:42.662Z,9.60
2018-04-06T23:00:10.842Z,9.60
2018-04-06T23:02:39.062Z,9.40
2018-04-06T23:05:07.969Z,9.40
2018-04-06T23:07:36.162Z,9.40
2018-04-06T23:10:04.339Z,9.20
2018-04-06T23:12:32.512Z,9.20
2018-04-06T23:15:00.687Z,9.20
2018-04-06T23:17:28.853Z,9.10
2018-04-06T23:19:57.018Z,9.10
2018-04-06T23:22:25.187Z,9.00
2018-04-06T23:24:53.375Z,9.00
2018-04-06T23:27:21.535Z,8.90
2018-04-06T23:29:49.706Z,8.90
2018-04-06T23:32:17.882Z,8.80
2018-04-06T23:34:46.047Z,8.80
2018-04-06T23:37:14.215Z,8.70
2018-04-06T23:39:43.151Z,8.70
2018-04-06T23:42:11.313Z,8.60
2018-04-06T23:44:39.482Z,8.70
2018-04-06T23:47:07.643Z,8.60
2018-04-06T23:49:37.623Z,8.60
2018-04-06T23:52:05.801Z,8.50
2018-04-06T23:54:34.730Z,8.50
2018-04-06T23:57:02.890Z,8.40
2018-04-06T23:59:31.062Z,8.50
